createdAt,value
2019-03-21T00:00:22.329Z,12.40
2019-03-21T00:02:49.664Z,17.52
2019-03-21T00:05:17.162Z,14.20
2019-03-21T00:07:44.460Z,17.90
2019-03-21T00:10:44.605Z,16.90
2019-03-21T00:13:12.426Z,12.33
2019-03-21T00:15:41.800Z,15.03
2019-03-21T00:18:10.670Z,16.70
2019-03-21T00:20:38.102Z,16.80
2019-03-21T00:23:05.521Z,16.97
2019-03-21T00:25:33.057Z,12.33
2019-03-21T00:28:00.465Z,11.43
2019-03-21T00:30:27.976Z,16.97
2019-03-21T00:33:14.656Z,11.53
2019-03-21T00:35:42.178Z,13.75
2019-03-21T00:38:09.488Z,19.07
2019-03-21T00:40:38.894Z,13.65
2019-03-21T00:43:08.022Z,18.07
2019-03-21T00:45:35.557Z,13.90
2019-03-21T00:48:03.909Z,13.78
2019-03-21T00:50:31.475Z,13.70
2019-03-21T00:52:58.889Z,16.82
2019-03-21T00:55:26.802Z,15.88
2019-03-21T00:57:54.222Z,12.98
2019-03-21T01:00:27.645Z,14.30
2019-03-21T01:02:55.941Z,16.60
2019-03-21T01:05:23.479Z,13.40
2019-03-21T01:07:50.983Z,18.32
2019-03-21T01:10:19.221Z,17.20
2019-03-21T01:12:46.537Z,15.68
2019-03-21T01:15:13.995Z,14.73
2019-03-21T01:17:41.298Z,17.27
2019-03-21T01:20:10.558Z,14.78
2019-03-21T01:22:37.993Z,13.83
2019-03-21T01:25:07.922Z,17.02
2019-03-21T01:27:35.374Z,12.45
2019-03-21T01:30:03.372Z,11.97
2019-03-21T01:32:30.801Z,12.80
2019-03-21T01:34:58.221Z,12.15
2019-03-21T01:37:25.753Z,18.67
2019-03-21T01:39:53.069Z,15.38
2019-03-21T01:42:20.506Z,13.25
2019-03-21T01:44:47.938Z,14.60
2019-03-21T01:47:15.474Z,10.88
2019-03-21T01:49:42.797Z,15.75
2019-03-21T01:52:10.837Z,14.45
2019-03-21T01:54:38.157Z,15.50
2019-03-21T01:57:05.492Z,14.03
2019-03-21T01:59:32.921Z,14.38
2019-03-21T02:02:00.232Z,13.70
2019-03-21T02:04:27.534Z,13.03
2019-03-21T02:06:54.992Z,19.30
2019-03-21T02:09:22.517Z,10.58
2019-03-21T02:11:49.939Z,9.78
2019-03-21T02:14:17.457Z,10.48
2019-03-21T02:16:44.805Z,12.05
2019-03-21T02:19:12.310Z,11.53
2019-03-21T02:21:39.849Z,13.93
2019-03-21T02:24:08.140Z,13.40
2019-03-21T02:26:35.660Z,12.60
2019-03-21T02:29:03.201Z,8.93
2019-03-21T02:31:30.530Z,11.70
2019-03-21T02:33:57.947Z,19.00
2019-03-21T02:36:25.368Z,12.80
2019-03-21T02:38:52.781Z,14.87
2019-03-21T02:41:20.224Z,12.95
2019-03-21T02:43:47.642Z,14.55
2019-03-21T02:46:15.212Z,17.10
2019-03-21T02:48:42.686Z,11.48
2019-03-21T02:51:10.193Z,15.30
2019-03-21T02:53:37.726Z,12.30
2019-03-21T02:56:06.880Z,14.45
2019-03-21T02:58:34.194Z,14.13
2019-03-21T03:01:01.633Z,13.55
2019-03-21T03:03:29.129Z,13.30
2019-03-21T03:05:56.438Z,13.15
2019-03-21T03:08:23.747Z,26.23
2019-03-21T03:10:52.330Z,15.50
2019-03-21T03:13:19.933Z,13.98
2019-03-21T03:15:47.566Z,16.48
2019-03-21T03:18:15.059Z,13.53
2019-03-21T03:20:42.667Z,12.70
2019-03-21T03:23:10.185Z,14.03
2019-03-21T03:25:37.675Z,18.98
2019-03-21T03:28:14.453Z,13.13
2019-03-21T03:30:41.881Z,13.28
2019-03-21T03:33:09.417Z,15.25
2019-03-21T03:35:36.947Z,16.27
2019-03-21T03:38:04.561Z,10.38
2019-03-21T03:40:35.316Z,15.15
2019-03-21T03:43:02.978Z,15.10
2019-03-21T03:45:37.848Z,13.60
2019-03-21T03:48:01.096Z,13.30
2019-03-21T03:50:28.519Z,12.85
2019-03-21T03:52:56.080Z,12.65
2019-03-21T03:55:23.688Z,13.20
2019-03-21T03:57:52.136Z,19.75
2019-03-21T04:00:19.777Z,14.63
2019-03-21T04:02:48.577Z,13.93
2019-03-21T04:05:16.145Z,22.40
2019-03-21T04:07:43.587Z,11.22
2019-03-21T04:10:14.518Z,16.80
2019-03-21T04:12:42.053Z,15.30
2019-03-21T04:15:09.962Z,12.33
2019-03-21T04:17:37.383Z,13.78
2019-03-21T04:20:05.980Z,13.83
2019-03-21T04:22:33.423Z,20.40
2019-03-21T04:25:00.834Z,10.60
2019-03-21T04:27:28.267Z,33.95
2019-03-21T04:29:55.601Z,17.42
2019-03-21T04:32:22.923Z,16.30
2019-03-21T04:34:50.244Z,13.45
2019-03-21T04:37:17.662Z,12.50
2019-03-21T04:39:44.981Z,13.65
2019-03-21T04:42:12.388Z,15.93
2019-03-21T04:44:39.926Z,17.67
2019-03-21T04:47:07.240Z,13.03
2019-03-21T04:49:34.700Z,11.75
2019-03-21T04:52:02.112Z,20.43
2019-03-21T04:54:29.544Z,13.88
2019-03-21T04:56:56.961Z,14.75
2019-03-21T04:59:24.381Z,16.20
2019-03-21T05:01:51.823Z,16.20
2019-03-21T05:04:19.155Z,18.23
2019-03-21T05:06:46.569Z,13.88
2019-03-21T05:09:16.956Z,14.33
2019-03-21T05:11:44.367Z,17.23
2019-03-21T05:14:11.821Z,17.45
2019-03-21T05:16:39.274Z,13.88
2019-03-21T05:19:06.713Z,14.47
2019-03-21T05:21:34.124Z,13.43
2019-03-21T05:24:01.561Z,52.93
2019-03-21T05:26:29.106Z,32.85
2019-03-21T05:28:56.533Z,25.35
2019-03-21T05:31:27.534Z,19.77
2019-03-21T05:33:54.869Z,20.08
2019-03-21T05:36:22.301Z,19.77
2019-03-21T05:38:49.745Z,15.48
2019-03-21T05:41:17.180Z,18.45
2019-03-21T05:44:10.575Z,16.48
2019-03-21T05:46:38.101Z,17.57
2019-03-21T05:49:05.516Z,14.90
2019-03-21T05:51:32.934Z,18.27
2019-03-21T05:54:00.356Z,22.50
2019-03-21T05:56:27.810Z,12.13
2019-03-21T05:58:55.238Z,17.10
2019-03-21T06:01:22.640Z,18.10
2019-03-21T06:03:50.697Z,14.28
2019-03-21T06:06:25.485Z,14.90
2019-03-21T06:08:52.923Z,14.63
2019-03-21T06:11:20.232Z,13.28
2019-03-21T06:13:47.569Z,13.40
2019-03-21T06:16:14.985Z,15.15
2019-03-21T06:18:52.936Z,24.37
2019-03-21T06:21:33.814Z,15.18
2019-03-21T06:24:34.017Z,15.78
2019-03-21T06:27:32.197Z,14.03
2019-03-21T06:29:59.721Z,13.90
2019-03-21T06:32:27.481Z,17.87
2019-03-21T06:34:55.808Z,13.78
2019-03-21T06:37:23.551Z,11.17
2019-03-21T06:39:50.983Z,21.13
2019-03-21T06:42:18.328Z,14.13
2019-03-21T06:44:45.777Z,13.23
2019-03-21T06:47:13.285Z,15.43
2019-03-21T06:49:40.726Z,17.00
2019-03-21T06:52:08.172Z,11.03
2019-03-21T06:54:35.614Z,12.33
2019-03-21T06:57:03.149Z,11.87
2019-03-21T06:59:30.671Z,15.23
2019-03-21T07:01:58.099Z,11.40
2019-03-21T07:04:25.650Z,10.53
2019-03-21T07:06:53.174Z,11.87
2019-03-21T07:09:20.694Z,12.87
2019-03-21T07:11:48.217Z,14.53
2019-03-21T07:14:15.852Z,8.53
2019-03-21T07:16:43.381Z,13.40
2019-03-21T07:19:10.858Z,10.57
2019-03-21T07:21:38.298Z,9.97
2019-03-21T07:24:05.703Z,9.43
2019-03-21T07:26:33.112Z,11.80
2019-03-21T07:29:00.513Z,9.63
2019-03-21T07:31:27.930Z,11.47
2019-03-21T07:33:55.344Z,9.67
2019-03-21T07:36:22.857Z,8.73
2019-03-21T07:38:50.189Z,13.10
2019-03-21T07:41:17.637Z,12.03
2019-03-21T07:43:45.026Z,9.70
2019-03-21T07:46:12.338Z,8.87
2019-03-21T07:48:39.841Z,11.33
2019-03-21T07:51:07.280Z,8.40
2019-03-21T07:53:34.777Z,8.93
2019-03-21T07:56:02.211Z,8.43
2019-03-21T07:58:29.708Z,9.90
2019-03-21T08:00:57.125Z,11.17
2019-03-21T08:03:24.536Z,11.60
2019-03-21T08:05:51.971Z,8.47
2019-03-21T08:08:19.394Z,9.17
2019-03-21T08:10:46.805Z,11.33
2019-03-21T08:13:14.212Z,10.10
2019-03-21T08:15:41.617Z,8.30
2019-03-21T08:18:09.134Z,7.47
2019-03-21T08:20:36.551Z,11.07
2019-03-21T08:23:04.090Z,11.30
2019-03-21T08:25:31.486Z,10.37
2019-03-21T08:27:58.914Z,10.67
2019-03-21T08:30:32.005Z,9.10
2019-03-21T08:32:59.525Z,10.50
2019-03-21T08:35:26.827Z,12.97
2019-03-21T08:37:54.244Z,7.40
2019-03-21T08:40:21.685Z,10.00
2019-03-21T08:42:49.200Z,11.07
2019-03-21T08:45:16.615Z,12.53
2019-03-21T08:47:44.169Z,9.60
2019-03-21T08:50:11.791Z,8.77
2019-03-21T08:52:39.324Z,11.00
2019-03-21T08:55:06.858Z,11.10
2019-03-21T08:57:34.377Z,9.97
2019-03-21T09:00:01.898Z,9.30
2019-03-21T09:02:29.201Z,10.43
2019-03-21T09:04:56.517Z,11.20
2019-03-21T09:07:24.069Z,10.67
2019-03-21T09:09:51.586Z,9.57
2019-03-21T09:12:19.005Z,10.33
2019-03-21T09:14:46.423Z,8.43
2019-03-21T09:17:13.826Z,13.97
2019-03-21T09:19:41.333Z,13.43
2019-03-21T09:22:08.762Z,9.40
2019-03-21T09:24:36.182Z,11.07
2019-03-21T09:27:03.709Z,8.57
2019-03-21T09:29:31.032Z,11.60
2019-03-21T09:31:58.573Z,10.83
2019-03-21T09:34:25.987Z,13.17
2019-03-21T09:36:53.348Z,11.20
2019-03-21T09:39:20.787Z,12.53
2019-03-21T09:41:48.191Z,9.77
2019-03-21T09:44:22.188Z,10.57
2019-03-21T09:46:50.996Z,7.23
2019-03-21T09:49:18.869Z,10.13
2019-03-21T09:51:46.272Z,8.90
2019-03-21T09:54:13.692Z,7.17
2019-03-21T09:56:41.118Z,9.37
2019-03-21T09:59:08.537Z,9.10
2019-03-21T10:01:35.948Z,7.10
2019-03-21T10:04:05.059Z,7.87
2019-03-21T10:06:32.582Z,7.13
2019-03-21T10:09:00.027Z,9.00
2019-03-21T10:11:27.536Z,6.87
2019-03-21T10:13:54.950Z,5.20
2019-03-21T10:16:22.472Z,8.00
2019-03-21T10:18:50.007Z,7.00
2019-03-21T10:21:17.525Z,11.87
2019-03-21T10:23:45.061Z,7.30
2019-03-21T10:26:12.560Z,10.47
2019-03-21T10:28:40.096Z,7.73
2019-03-21T10:31:07.611Z,8.57
2019-03-21T10:33:35.235Z,7.70
2019-03-21T10:36:02.754Z,8.93
2019-03-21T10:38:30.200Z,8.17
2019-03-21T10:40:57.755Z,10.30
2019-03-21T10:43:25.188Z,8.50
2019-03-21T10:45:52.600Z,8.37
2019-03-21T10:48:20.032Z,7.07
2019-03-21T10:50:47.458Z,7.57
2019-03-21T10:53:14.908Z,9.90
2019-03-21T10:55:42.242Z,11.07
2019-03-21T10:58:09.757Z,7.07
2019-03-21T11:00:37.948Z,5.47
2019-03-21T11:03:06.533Z,9.13
2019-03-21T11:05:34.277Z,8.40
2019-03-21T11:08:01.797Z,9.43
2019-03-21T11:10:29.223Z,7.30
2019-03-21T11:12:56.743Z,9.73
2019-03-21T11:15:24.279Z,9.80
2019-03-21T11:17:53.603Z,9.57
2019-03-21T11:20:49.414Z,8.73
2019-03-21T11:23:16.714Z,9.80
2019-03-21T11:25:44.244Z,8.27
2019-03-21T11:28:11.763Z,7.27
2019-03-21T11:30:40.721Z,8.83
2019-03-21T11:33:08.226Z,10.30
2019-03-21T11:35:35.734Z,6.17
2019-03-21T11:38:03.736Z,7.87
2019-03-21T11:40:31.145Z,7.47
2019-03-21T11:42:59.609Z,7.50
2019-03-21T11:45:27.133Z,6.43
2019-03-21T11:47:54.790Z,6.43
2019-03-21T11:50:22.302Z,4.07
2019-03-21T11:52:49.813Z,7.10
2019-03-21T11:55:17.331Z,9.00
2019-03-21T11:57:44.909Z,7.77
2019-03-21T12:00:12.758Z,6.17
2019-03-21T12:02:40.280Z,7.17
2019-03-21T12:05:08.314Z,7.70
2019-03-21T12:07:35.711Z,7.60
2019-03-21T12:10:03.752Z,5.43
2019-03-21T12:12:31.180Z,6.67
2019-03-21T12:14:58.518Z,4.67
2019-03-21T12:17:25.933Z,7.03
2019-03-21T12:19:53.357Z,5.73
2019-03-21T12:22:29.430Z,5.53
2019-03-21T12:24:50.023Z,7.00
2019-03-21T12:27:17.433Z,6.47
2019-03-21T12:29:44.864Z,8.57
2019-03-21T12:32:12.281Z,6.07
2019-03-21T12:34:39.597Z,7.37
2019-03-21T12:37:07.073Z,7.03
2019-03-21T12:39:34.485Z,8.13
2019-03-21T12:42:01.897Z,5.50
2019-03-21T12:44:29.192Z,4.73
2019-03-21T12:46:56.716Z,5.50
2019-03-21T12:49:24.133Z,5.73
2019-03-21T12:51:51.450Z,7.60
2019-03-21T12:54:18.774Z,6.03
2019-03-21T12:56:46.247Z,8.13
2019-03-21T12:59:13.710Z,6.93
2019-03-21T13:01:41.230Z,6.80
2019-03-21T13:04:08.744Z,4.00
2019-03-21T13:06:36.158Z,6.50
2019-03-21T13:09:06.056Z,4.33
2019-03-21T13:11:33.510Z,8.70
2019-03-21T13:14:00.909Z,7.23
2019-03-21T13:16:28.437Z,5.83
2019-03-21T13:18:55.936Z,5.57
2019-03-21T13:21:25.705Z,8.87
2019-03-21T13:23:52.542Z,5.73
2019-03-21T13:26:20.104Z,4.27
2019-03-21T13:28:47.414Z,4.60
2019-03-21T13:31:14.943Z,5.60
2019-03-21T13:33:42.449Z,6.90
2019-03-21T13:36:09.986Z,7.67
2019-03-21T13:38:37.522Z,4.97
2019-03-21T13:41:05.043Z,9.87
2019-03-21T13:43:32.440Z,6.87
2019-03-21T13:45:59.977Z,4.83
2019-03-21T13:48:27.497Z,5.10
2019-03-21T13:50:54.843Z,5.93
2019-03-21T13:53:22.257Z,5.93
2019-03-21T13:55:49.701Z,10.83
2019-03-21T13:58:17.231Z,6.50
2019-03-21T14:00:44.669Z,6.40
2019-03-21T14:03:12.128Z,6.37
2019-03-21T14:05:39.668Z,6.87
2019-03-21T14:08:07.121Z,4.83
2019-03-21T14:10:34.998Z,4.33
2019-03-21T14:13:02.513Z,4.33
2019-03-21T14:15:30.032Z,5.17
2019-03-21T14:17:57.556Z,5.47
2019-03-21T14:20:25.055Z,5.53
2019-03-21T14:22:52.580Z,6.50
2019-03-21T14:25:20.101Z,6.17
2019-03-21T14:27:47.612Z,6.37
2019-03-21T14:30:16.318Z,5.07
2019-03-21T14:32:43.845Z,5.93
2019-03-21T14:35:11.894Z,5.67
2019-03-21T14:37:39.434Z,6.37
2019-03-21T14:40:07.304Z,5.53
2019-03-21T14:42:34.836Z,6.97
2019-03-21T14:45:03.422Z,5.23
2019-03-21T14:47:36.119Z,6.97
2019-03-21T14:50:00.411Z,5.00
2019-03-21T14:52:27.864Z,4.90
2019-03-21T14:54:55.269Z,8.60
2019-03-21T14:57:22.673Z,5.43
2019-03-21T14:59:50.105Z,6.50
2019-03-21T15:02:17.625Z,7.97
2019-03-21T15:04:45.024Z,7.03
2019-03-21T15:07:12.495Z,5.33
2019-03-21T15:09:39.905Z,8.70
2019-03-21T15:12:07.333Z,8.70
2019-03-21T15:14:34.849Z,7.83
2019-03-21T15:17:02.392Z,8.30
2019-03-21T15:19:29.809Z,5.50
2019-03-21T15:21:57.114Z,7.80
2019-03-21T15:24:24.639Z,8.07
2019-03-21T15:26:52.061Z,6.30
2019-03-21T15:29:19.498Z,4.40
2019-03-21T15:31:46.930Z,5.87
2019-03-21T15:34:14.371Z,4.70
2019-03-21T15:36:41.768Z,6.67
2019-03-21T15:39:09.189Z,6.80
2019-03-21T15:41:37.238Z,5.23
2019-03-21T15:44:04.677Z,6.57
2019-03-21T15:46:32.186Z,6.43
2019-03-21T15:48:59.612Z,6.47
2019-03-21T15:51:27.079Z,6.30
2019-03-21T15:53:56.640Z,7.97
2019-03-21T15:56:23.902Z,7.50
2019-03-21T15:58:51.429Z,7.10
2019-03-21T16:01:18.833Z,5.47
2019-03-21T16:03:46.256Z,7.67
2019-03-21T16:06:13.800Z,7.30
2019-03-21T16:08:41.237Z,8.00
2019-03-21T16:11:08.758Z,9.23
2019-03-21T16:13:36.300Z,7.93
2019-03-21T16:16:03.829Z,8.80
2019-03-21T16:18:31.364Z,8.90
2019-03-21T16:20:58.768Z,7.60
2019-03-21T16:23:26.205Z,9.70
2019-03-21T16:25:53.619Z,10.20
2019-03-21T16:28:21.071Z,6.63
2019-03-21T16:30:48.631Z,9.07
2019-03-21T16:33:15.965Z,7.20
2019-03-21T16:35:43.509Z,9.60
2019-03-21T16:38:10.934Z,9.10
2019-03-21T16:40:38.354Z,6.27
2019-03-21T16:43:06.024Z,7.20
2019-03-21T16:45:33.721Z,9.80
2019-03-21T16:48:01.247Z,6.83
2019-03-21T16:50:28.689Z,6.27
2019-03-21T16:52:56.154Z,7.10
2019-03-21T16:55:23.946Z,5.87
2019-03-21T16:57:51.349Z,8.90
2019-03-21T17:00:19.496Z,11.17
2019-03-21T17:02:47.059Z,9.30
2019-03-21T17:05:14.646Z,7.50
2019-03-21T17:07:42.287Z,9.43
2019-03-21T17:10:09.914Z,9.13
2019-03-21T17:12:37.550Z,8.93
2019-03-21T17:15:05.621Z,8.83
2019-03-21T17:17:33.130Z,8.70
2019-03-21T17:20:03.618Z,7.07
2019-03-21T17:22:30.042Z,6.07
2019-03-21T17:24:57.570Z,8.00
2019-03-21T17:27:25.201Z,7.40
2019-03-21T17:29:52.698Z,8.30
2019-03-21T17:32:20.306Z,10.27
2019-03-21T17:34:47.849Z,8.37
2019-03-21T17:37:15.406Z,6.27
2019-03-21T17:39:42.841Z,10.67
2019-03-21T17:42:10.384Z,9.97
2019-03-21T17:44:37.932Z,7.03
2019-03-21T17:47:05.500Z,6.47
2019-03-21T17:49:32.991Z,7.50
2019-03-21T17:52:00.538Z,8.70
2019-03-21T17:54:28.086Z,12.40
2019-03-21T17:56:55.513Z,12.53
2019-03-21T17:59:23.061Z,10.90
2019-03-21T18:01:50.689Z,7.67
2019-03-21T18:04:18.320Z,6.27
2019-03-21T18:06:45.736Z,9.23
2019-03-21T18:09:13.049Z,10.53
2019-03-21T18:11:40.585Z,8.83
2019-03-21T18:14:08.114Z,14.27
2019-03-21T18:16:35.660Z,7.83
2019-03-21T18:19:03.325Z,8.43
2019-03-21T18:21:30.857Z,5.37
2019-03-21T18:23:58.305Z,8.07
2019-03-21T18:26:25.824Z,12.00
2019-03-21T18:28:53.388Z,10.77
2019-03-21T18:31:20.841Z,13.43
2019-03-21T18:33:48.263Z,12.03
2019-03-21T18:36:15.785Z,18.20
2019-03-21T18:38:43.223Z,17.03
2019-03-21T18:41:10.744Z,18.83
2019-03-21T18:43:38.176Z,13.97
2019-03-21T18:46:05.701Z,11.30
2019-03-21T18:48:33.237Z,9.07
2019-03-21T18:51:00.662Z,8.13
2019-03-21T18:53:28.276Z,5.77
2019-03-21T18:55:55.809Z,6.73
2019-03-21T18:58:23.336Z,10.90
2019-03-21T19:00:50.777Z,10.03
2019-03-21T19:03:18.213Z,9.17
2019-03-21T19:05:45.777Z,15.90
2019-03-21T19:08:13.303Z,9.70
2019-03-21T19:10:40.758Z,14.77
2019-03-21T19:13:08.402Z,10.27
2019-03-21T19:15:35.909Z,8.73
2019-03-21T19:18:03.555Z,11.63
2019-03-21T19:20:31.115Z,8.23
2019-03-21T19:22:58.550Z,8.80
2019-03-21T19:25:26.122Z,11.20
2019-03-21T19:27:53.694Z,11.87
2019-03-21T19:30:21.265Z,13.30
2019-03-21T19:32:49.000Z,15.93
2019-03-21T19:35:16.651Z,17.50
2019-03-21T19:37:44.091Z,23.43
2019-03-21T19:40:11.832Z,17.43
2019-03-21T19:42:39.385Z,12.23
2019-03-21T19:45:07.872Z,12.10
2019-03-21T19:47:35.415Z,8.40
2019-03-21T19:50:03.733Z,8.77
2019-03-21T19:52:31.246Z,11.80
2019-03-21T19:54:58.603Z,9.60
2019-03-21T19:57:26.155Z,9.47
2019-03-21T19:59:53.749Z,10.67
2019-03-21T20:02:21.314Z,16.50
2019-03-21T20:04:48.768Z,12.73
2019-03-21T20:07:16.711Z,13.43
2019-03-21T20:09:44.049Z,12.43
2019-03-21T20:12:11.705Z,12.87
2019-03-21T20:14:39.036Z,11.33
2019-03-21T20:17:06.612Z,11.33
2019-03-21T20:19:34.177Z,16.97
2019-03-21T20:22:01.714Z,14.27
2019-03-21T20:24:29.208Z,9.60
2019-03-21T20:26:56.773Z,10.03
2019-03-21T20:29:24.226Z,11.70
2019-03-21T20:31:51.783Z,10.03
2019-03-21T20:34:19.244Z,11.77
2019-03-21T20:36:46.729Z,11.97
2019-03-21T20:39:14.305Z,15.23
2019-03-21T20:41:41.865Z,18.60
2019-03-21T20:44:15.038Z,13.73
2019-03-21T20:46:39.077Z,12.47
2019-03-21T20:49:06.736Z,14.23
2019-03-21T20:51:34.303Z,14.93
2019-03-21T20:54:01.726Z,14.63
2019-03-21T20:56:29.294Z,12.87
2019-03-21T20:58:56.741Z,15.57
2019-03-21T21:01:24.289Z,10.27
2019-03-21T21:03:51.837Z,13.87
2019-03-21T21:06:19.394Z,11.77
2019-03-21T21:08:46.941Z,12.10
2019-03-21T21:11:14.393Z,16.33
2019-03-21T21:13:41.830Z,12.85
2019-03-21T21:16:09.274Z,13.80
2019-03-21T21:18:36.596Z,13.00
2019-03-21T21:21:04.029Z,11.43
2019-03-21T21:23:31.571Z,16.90
2019-03-21T21:26:05.365Z,10.83
2019-03-21T21:28:28.568Z,12.63
2019-03-21T21:30:56.093Z,14.80
2019-03-21T21:33:23.695Z,17.07
2019-03-21T21:35:51.134Z,15.30
2019-03-21T21:38:18.582Z,18.57
2019-03-21T21:40:46.093Z,18.50
2019-03-21T21:43:13.548Z,13.87
2019-03-21T21:45:41.074Z,16.30
2019-03-21T21:48:08.641Z,15.07
2019-03-21T21:50:36.081Z,11.67
2019-03-21T21:53:03.529Z,11.37
2019-03-21T21:55:31.059Z,12.70
2019-03-21T21:57:58.501Z,10.90
2019-03-21T22:00:26.117Z,8.50
2019-03-21T22:02:53.761Z,11.33
2019-03-21T22:05:21.331Z,12.40
2019-03-21T22:07:48.797Z,12.95
2019-03-21T22:10:16.433Z,9.98
2019-03-21T22:12:44.690Z,7.85
2019-03-21T22:15:12.453Z,14.55
2019-03-21T22:17:39.898Z,13.43
2019-03-21T22:20:07.949Z,13.20
2019-03-21T22:22:35.538Z,11.45
2019-03-21T22:25:03.813Z,10.88
2019-03-21T22:27:31.356Z,11.08
2019-03-21T22:29:58.689Z,11.03
2019-03-21T22:32:26.138Z,11.57
2019-03-21T22:34:53.562Z,10.10
2019-03-21T22:37:21.005Z,11.38
2019-03-21T22:39:48.575Z,14.15
2019-03-21T22:42:16.110Z,12.88
2019-03-21T22:44:43.659Z,12.73
2019-03-21T22:47:11.203Z,12.40
2019-03-21T22:49:38.664Z,11.20
2019-03-21T22:52:06.227Z,12.00
2019-03-21T22:54:33.666Z,22.40
2019-03-21T22:57:01.116Z,12.07
2019-03-21T22:59:28.662Z,12.40
2019-03-21T23:01:56.283Z,14.95
2019-03-21T23:04:23.856Z,13.70
2019-03-21T23:06:51.279Z,13.58
2019-03-21T23:09:18.725Z,11.95
2019-03-21T23:11:46.158Z,14.50
2019-03-21T23:14:13.744Z,14.13
2019-03-21T23:16:41.192Z,9.40
2019-03-21T23:19:08.633Z,11.12
2019-03-21T23:21:36.053Z,10.05
2019-03-21T23:24:03.632Z,16.12
2019-03-21T23:26:31.171Z,10.40
2019-03-21T23:28:58.709Z,9.90
2019-03-21T23:31:26.058Z,12.75
2019-03-21T23:33:53.387Z,9.98
2019-03-21T23:36:20.921Z,11.83
2019-03-21T23:38:48.340Z,11.88
2019-03-21T23:41:15.786Z,14.83
2019-03-21T23:43:43.311Z,13.03
2019-03-21T23:46:10.731Z,9.38
2019-03-21T23:48:38.254Z,9.93
2019-03-21T23:51:05.676Z,15.25
2019-03-21T23:53:33.125Z,15.63
2019-03-21T23:56:00.569Z,11.57
2019-03-21T23:58:28.016Z,12.55
